Time;durP1;ratioP1;P1;durP2;ratioP2;P2;SDS_P1;SDS_P2;PMS_P1;PMS_P2;Temp;Humidity;BMP_temperature;BMP_pressure;BME280_temperature;BME280_humidity;BME280_pressure;Samples;Min_cycle;Max_cycle;Signal;HPM_P1;HPM_P2
2023/09/27 00:01:50;;;;;;;11.73;10.57;;;;;;;;;;4959904;28;20200;-76
2023/09/27 00:04:16;;;;;;;11.77;10.80;;;;;;;;;;4958858;28;20069;-76
2023/09/27 00:06:41;;;;;;;12.02;11.13;;;;;;;;;;4954966;28;20034;-76
2023/09/27 00:09:08;;;;;;;12.95;11.88;;;;;;;;;;4959588;28;20062;-76
2023/09/27 00:11:35;;;;;;;11.57;10.57;;;;;;;;;;4962045;28;20158;-76
2023/09/27 00:14:00;;;;;;;12.60;11.13;;;;;;;;;;4962372;28;20027;-76
2023/09/27 00:16:26;;;;;;;11.60;10.70;;;;;;;;;;4966275;28;20135;-75
2023/09/27 00:18:51;;;;;;;12.50;10.90;;;;;;;;;;4960744;28;20565;-75
2023/09/27 00:21:17;;;;;;;12.40;11.18;;;;;;;;;;4946113;28;20372;-75
2023/09/27 00:23:42;;;;;;;12.02;10.95;;;;;;;;;;4962666;28;20039;-74
2023/09/27 00:26:08;;;;;;;12.98;11.70;;;;;;;;;;4961122;28;20039;-73
2023/09/27 00:28:33;;;;;;;12.05;11.05;;;;;;;;;;4957259;28;20057;-76
2023/09/27 00:30:59;;;;;;;12.43;11.32;;;;;;;;;;4932980;28;20129;-75
2023/09/27 00:33:24;;;;;;;12.02;10.85;;;;;;;;;;4960010;28;20585;-75
2023/09/27 00:35:50;;;;;;;12.23;11.20;;;;;;;;;;4962047;28;20067;-74
2023/09/27 00:38:16;;;;;;;12.52;11.52;;;;;;;;;;4959835;28;20169;-75
2023/09/27 00:40:46;;;;;;;12.77;11.77;;;;;;;;;;4972729;28;20049;-74
2023/09/27 00:43:29;;;;;;;13.00;11.50;;;;;;;;;;4957014;28;20374;-76
2023/09/27 00:46:03;;;;;;;13.15;11.85;;;;;;;;;;4964557;28;20031;-75
2023/09/27 00:48:30;;;;;;;13.43;12.35;;;;;;;;;;4968398;28;20430;-75
2023/09/27 00:50:57;;;;;;;13.25;12.05;;;;;;;;;;4960386;28;20043;-75
2023/09/27 00:53:26;;;;;;;14.63;11.55;;;;;;;;;;4938407;28;20139;-75
2023/09/27 00:55:52;;;;;;;;;;;;;;;;;;4961159;28;20129;-75
2023/09/27 00:58:19;;;;;;;13.07;11.95;;;;;;;;;;4968205;28;20004;-76
2023/09/27 01:00:52;;;;;;;13.18;11.77;;;;;;;;;;4944520;28;20038;-76
2023/09/27 01:03:18;;;;;;;13.27;11.98;;;;;;;;;;4963384;28;20039;-75
2023/09/27 01:05:45;;;;;;;13.50;12.30;;;;;;;;;;4962009;28;20204;-74
2023/09/27 01:08:12;;;;;;;13.60;12.23;;;;;;;;;;4963396;28;20498;-75
2023/09/27 01:10:37;;;;;;;18.10;13.02;;;;;;;;;;4977334;28;20089;-75
2023/09/27 01:13:04;;;;;;;15.68;13.43;;;;;;;;;;4962477;28;20133;-75
2023/09/27 01:15:33;;;;;;;15.85;14.20;;;;;;;;;;4964290;28;20188;-75
2023/09/27 01:18:00;;;;;;;17.27;13.05;;;;;;;;;;4962091;28;20031;-75
2023/09/27 01:20:27;;;;;;;15.10;13.60;;;;;;;;;;4963366;28;20035;-75
2023/09/27 01:23:05;;;;;;;16.88;15.20;;;;;;;;;;4963467;28;20122;-75
2023/09/27 01:25:37;;;;;;;16.27;14.68;;;;;;;;;;4963543;28;20043;-75
2023/09/27 01:28:05;;;;;;;16.83;14.82;;;;;;;;;;4964001;28;20039;-75
2023/09/27 01:30:34;;;;;;;17.42;15.18;;;;;;;;;;4968296;28;20042;-75
2023/09/27 01:33:10;;;;;;;20.85;15.70;;;;;;;;;;4974595;28;20114;-75
2023/09/27 01:35:38;;;;;;;16.67;14.85;;;;;;;;;;4964437;28;20069;-75
2023/09/27 01:38:06;;;;;;;15.55;14.05;;;;;;;;;;4963849;28;20110;-75
2023/09/27 01:40:34;;;;;;;14.88;13.40;;;;;;;;;;4958204;28;20066;-75
2023/09/27 01:43:03;;;;;;;13.48;12.20;;;;;;;;;;4980275;28;20039;-76
2023/09/27 01:45:29;;;;;;;13.40;12.20;;;;;;;;;;4972457;28;20541;-75
2023/09/27 01:47:55;;;;;;;12.73;11.60;;;;;;;;;;4962988;28;20117;-75
2023/09/27 01:50:23;;;;;;;13.05;11.82;;;;;;;;;;4966337;28;20050;-76
2023/09/27 01:52:50;;;;;;;13.68;12.35;;;;;;;;;;4980293;28;20030;-75
2023/09/27 01:55:16;;;;;;;12.90;11.90;;;;;;;;;;4974317;28;20042;-76
2023/09/27 01:57:41;;;;;;;13.68;12.38;;;;;;;;;;4968087;28;20031;-76
2023/09/27 02:00:11;;;;;;;13.93;12.55;;;;;;;;;;4957678;28;20054;-76
2023/09/27 02:02:38;;;;;;;12.77;11.57;;;;;;;;;;4962590;28;20038;-76
2023/09/27 02:05:04;;;;;;;12.02;11.02;;;;;;;;;;4963438;28;20034;-75
2023/09/27 02:07:30;;;;;;;12.52;11.52;;;;;;;;;;4961196;28;20579;-76
2023/09/27 02:09:56;;;;;;;12.85;11.75;;;;;;;;;;4966778;28;20051;-76
2023/09/27 02:12:21;;;;;;;12.68;11.57;;;;;;;;;;4961704;28;20034;-76
2023/09/27 02:14:47;;;;;;;13.00;11.90;;;;;;;;;;4969142;28;20050;-76
2023/09/27 02:17:12;;;;;;;13.13;11.80;;;;;;;;;;4969511;28;20041;-76
2023/09/27 02:19:39;;;;;;;12.82;11.77;;;;;;;;;;4961525;28;20118;-75
2023/09/27 02:22:06;;;;;;;12.82;11.70;;;;;;;;;;4962709;28;20126;-75
2023/09/27 02:24:31;;;;;;;12.73;11.57;;;;;;;;;;4966752;28;20518;-76
2023/09/27 02:26:57;;;;;;;13.35;12.15;;;;;;;;;;4956815;28;20035;-76
2023/09/27 02:29:23;;;;;;;13.05;11.95;;;;;;;;;;4960027;28;20039;-76
2023/09/27 02:31:48;;;;;;;12.68;11.57;;;;;;;;;;4963264;28;20046;-76
2023/09/27 02:34:14;;;;;;;13.75;12.50;;;;;;;;;;4963276;28;20038;-76
2023/09/27 02:36:41;;;;;;;13.73;12.52;;;;;;;;;;4953561;28;20039;-74
2023/09/27 02:39:07;;;;;;;13.85;12.48;;;;;;;;;;4966599;28;20122;-77
2023/09/27 02:41:33;;;;;;;13.98;12.70;;;;;;;;;;4962185;28;20094;-75
2023/09/27 02:43:59;;;;;;;13.13;11.82;;;;;;;;;;4947658;28;20039;-74
2023/09/27 02:46:24;;;;;;;13.63;12.23;;;;;;;;;;4961933;28;20041;-74
2023/09/27 02:48:50;;;;;;;14.85;13.30;;;;;;;;;;4962360;28;20037;-75
2023/09/27 02:51:15;;;;;;;13.80;12.45;;;;;;;;;;4963356;28;20050;-74
2023/09/27 02:53:42;;;;;;;15.27;11.85;;;;;;;;;;4959982;28;20034;-75
2023/09/27 02:56:08;;;;;;;13.07;11.82;;;;;;;;;;4959628;28;20649;-73
2023/09/27 02:58:35;;;;;;;13.23;11.95;;;;;;;;;;4962845;28;20387;-74
2023/09/27 03:01:00;;;;;;;13.70;12.40;;;;;;;;;;4963236;28;20509;-74
2023/09/27 03:03:27;;;;;;;13.23;12.05;;;;;;;;;;4954765;28;20031;-75
2023/09/27 03:05:53;;;;;;;18.17;12.35;;;;;;;;;;4961744;28;20046;-74
2023/09/27 03:08:18;;;;;;;13.20;11.98;;;;;;;;;;4962335;28;20050;-74
2023/09/27 03:10:44;;;;;;;13.80;12.52;;;;;;;;;;4962580;28;20043;-74
2023/09/27 03:13:11;;;;;;;14.20;12.88;;;;;;;;;;4951016;28;20118;-74
2023/09/27 03:15:37;;;;;;;14.95;13.55;;;;;;;;;;4962515;28;20175;-74
2023/09/27 03:18:03;;;;;;;16.30;12.90;;;;;;;;;;4956411;28;20117;-74
2023/09/27 03:20:30;;;;;;;14.02;12.50;;;;;;;;;;4961109;28;20526;-74
2023/09/27 03:22:56;;;;;;;13.15;11.98;;;;;;;;;;4939059;28;20125;-74
2023/09/27 03:25:21;;;;;;;14.98;13.30;;;;;;;;;;4960831;28;20137;-73
2023/09/27 03:27:47;;;;;;;14.52;13.13;;;;;;;;;;4958270;28;20150;-74
2023/09/27 03:30:12;;;;;;;15.85;14.25;;;;;;;;;;4960960;28;20073;-75
2023/09/27 03:32:40;;;;;;;17.02;15.23;;;;;;;;;;4961457;28;20499;-75
2023/09/27 03:35:07;;;;;;;15.82;14.32;;;;;;;;;;4962953;28;20110;-75
2023/09/27 03:37:34;;;;;;;18.98;14.85;;;;;;;;;;4968697;28;20038;-74
2023/09/27 03:40:01;;;;;;;16.42;14.82;;;;;;;;;;4961786;28;20081;-75
2023/09/27 03:42:27;;;;;;;15.90;14.30;;;;;;;;;;4953413;28;20102;-75
2023/09/27 03:44:54;;;;;;;16.05;14.45;;;;;;;;;;4961404;28;20051;-75
2023/09/27 03:47:20;;;;;;;20.02;14.98;;;;;;;;;;4956062;28;20588;-76
2023/09/27 03:49:46;;;;;;;15.73;14.13;;;;;;;;;;4955992;28;20038;-75
2023/09/27 03:52:12;;;;;;;16.95;15.35;;;;;;;;;;4953305;28;20472;-76
2023/09/27 03:54:37;;;;;;;15.27;13.73;;;;;;;;;;4960056;28;20062;-75
2023/09/27 03:57:04;;;;;;;16.40;14.20;;;;;;;;;;4954138;28;20046;-75
2023/09/27 03:59:29;;;;;;;17.10;15.23;;;;;;;;;;4957882;28;20039;-74
2023/09/27 04:01:55;;;;;;;17.58;15.02;;;;;;;;;;4961459;28;20075;-74
2023/09/27 04:04:21;;;;;;;18.33;14.68;;;;;;;;;;4968708;28;20691;-74
2023/09/27 04:06:48;;;;;;;16.88;15.10;;;;;;;;;;4960958;28;20038;-75
2023/09/27 04:09:14;;;;;;;15.82;14.13;;;;;;;;;;4959697;28;20426;-76
2023/09/27 04:11:40;;;;;;;16.80;15.35;;;;;;;;;;4953073;28;20034;-74
2023/09/27 04:14:05;;;;;;;16.85;15.15;;;;;;;;;;4962783;28;20447;-75
2023/09/27 04:16:31;;;;;;;16.60;15.07;;;;;;;;;;4959200;28;20721;-75
2023/09/27 04:18:58;;;;;;;16.13;14.63;;;;;;;;;;4960837;28;20042;-75
2023/09/27 04:21:25;;;;;;;16.55;15.00;;;;;;;;;;4933167;28;20111;-76
2023/09/27 04:23:57;;;;;;;16.88;14.98;;;;;;;;;;4961251;28;20121;-75
2023/09/27 04:26:26;;;;;;;21.70;17.23;;;;;;;;;;4960914;28;20043;-76
2023/09/27 04:28:53;;;;;;;19.05;17.02;;;;;;;;;;4953318;28;20031;-76
2023/09/27 04:31:19;;;;;;;22.20;17.45;;;;;;;;;;4960034;28;20038;-74
2023/09/27 04:33:45;;;;;;;21.00;17.85;;;;;;;;;;4960871;28;20089;-75
2023/09/27 04:36:15;;;;;;;19.30;17.08;;;;;;;;;;4959394;28;20047;-75
2023/09/27 04:38:41;;;;;;;18.65;16.60;;;;;;;;;;4960948;28;20031;-76
2023/09/27 04:41:08;;;;;;;19.15;17.17;;;;;;;;;;4964378;28;20407;-76
2023/09/27 04:43:34;;;;;;;20.45;18.25;;;;;;;;;;4962570;28;20045;-75
2023/09/27 04:45:59;;;;;;;22.40;18.88;;;;;;;;;;4966378;28;20446;-76
2023/09/27 04:48:25;;;;;;;25.83;18.63;;;;;;;;;;4964443;28;20448;-76
2023/09/27 04:50:50;;;;;;;22.88;19.15;;;;;;;;;;4968422;28;20085;-75
2023/09/27 04:53:16;;;;;;;24.33;19.63;;;;;;;;;;4951595;28;20045;-76
2023/09/27 04:55:42;;;;;;;25.48;20.60;;;;;;;;;;4962890;28;20372;-76
2023/09/27 04:58:07;;;;;;;24.88;19.45;;;;;;;;;;4967725;28;20041;-77
2023/09/27 05:00:33;;;;;;;25.65;21.63;;;;;;;;;;4980864;28;20022;-76
2023/09/27 05:02:58;;;;;;;39.08;27.95;;;;;;;;;;4971243;28;20042;-77
2023/09/27 05:05:24;;;;;;;36.65;26.45;;;;;;;;;;4969902;28;20089;-75
2023/09/27 05:07:49;;;;;;;24.27;20.00;;;;;;;;;;4973824;28;20392;-75
2023/09/27 05:10:15;;;;;;;26.08;19.60;;;;;;;;;;4975913;28;20039;-76
2023/09/27 05:12:41;;;;;;;22.88;19.73;;;;;;;;;;4965117;28;20043;-76
2023/09/27 05:15:09;;;;;;;28.55;22.17;;;;;;;;;;4967066;28;20027;-76
2023/09/27 05:17:35;;;;;;;31.85;22.77;;;;;;;;;;4968305;28;20038;-75
2023/09/27 05:20:06;;;;;;;28.48;21.75;;;;;;;;;;4968234;28;20100;-74
2023/09/27 05:22:31;;;;;;;28.65;20.65;;;;;;;;;;4970060;28;20036;-75
2023/09/27 05:24:57;;;;;;;33.22;22.20;;;;;;;;;;4966248;28;20042;-75
2023/09/27 05:27:22;;;;;;;27.58;22.27;;;;;;;;;;4965690;28;20043;-75
2023/09/27 05:29:48;;;;;;;20.65;18.52;;;;;;;;;;4965582;28;20053;-74
2023/09/27 05:32:13;;;;;;;21.88;17.90;;;;;;;;;;4970123;28;20046;-75
2023/09/27 05:34:39;;;;;;;20.52;18.38;;;;;;;;;;4974299;28;20660;-75
2023/09/27 05:37:05;;;;;;;20.70;18.25;;;;;;;;;;4970697;28;20118;-74
2023/09/27 05:39:31;;;;;;;25.80;19.13;;;;;;;;;;4967857;28;20469;-75
2023/09/27 05:41:56;;;;;;;22.55;17.55;;;;;;;;;;4974930;28;20043;-74
2023/09/27 05:44:22;;;;;;;22.20;19.73;;;;;;;;;;4968389;28;20034;-74
2023/09/27 05:46:48;;;;;;;21.35;18.80;;;;;;;;;;4968628;28;20632;-74
2023/09/27 05:49:14;;;;;;;23.85;19.55;;;;;;;;;;4970316;28;20495;-74
2023/09/27 05:51:41;;;;;;;20.90;18.30;;;;;;;;;;4964750;28;20034;-74
2023/09/27 05:54:07;;;;;;;20.20;17.95;;;;;;;;;;4968715;28;20510;-74
2023/09/27 05:56:37;;;;;;;19.10;17.20;;;;;;;;;;4964226;28;20035;-74
2023/09/27 05:59:08;;;;;;;19.17;16.15;;;;;;;;;;4971596;28;20047;-74
2023/09/27 06:01:34;;;;;;;18.48;14.70;;;;;;;;;;4973872;28;20042;-74
2023/09/27 06:04:01;;;;;;;11.63;10.73;;;;;;;;;;4963079;28;20034;-74
2023/09/27 06:06:27;;;;;;;16.83;15.32;;;;;;;;;;4964237;28;20062;-74
2023/09/27 06:08:54;;;;;;;13.98;12.82;;;;;;;;;;4971487;28;20034;-74
2023/09/27 06:11:20;;;;;;;17.02;15.38;;;;;;;;;;4971310;28;20034;-74
2023/09/27 06:13:45;;;;;;;15.68;14.18;;;;;;;;;;4970393;28;20426;-75
2023/09/27 06:16:17;;;;;;;16.23;14.75;;;;;;;;;;4968820;28;20501;-74
2023/09/27 06:18:43;;;;;;;15.95;14.23;;;;;;;;;;4968638;28;20043;-74
2023/09/27 06:21:09;;;;;;;16.00;14.20;;;;;;;;;;4969695;28;20035;-74
2023/09/27 06:23:35;;;;;;;16.13;14.52;;;;;;;;;;4963822;28;20058;-74
2023/09/27 06:26:02;;;;;;;16.40;14.65;;;;;;;;;;4964725;28;20050;-74
2023/09/27 06:28:27;;;;;;;16.65;15.05;;;;;;;;;;4967502;28;20030;-74
2023/09/27 06:30:53;;;;;;;15.73;14.32;;;;;;;;;;4973766;28;20038;-74
2023/09/27 06:33:18;;;;;;;16.30;14.48;;;;;;;;;;4964742;28;20038;-74
2023/09/27 06:35:44;;;;;;;15.32;13.93;;;;;;;;;;4969387;28;20125;-74
2023/09/27 06:38:09;;;;;;;16.17;14.57;;;;;;;;;;4969661;28;20043;-74
2023/09/27 06:40:35;;;;;;;16.00;14.48;;;;;;;;;;4967868;28;20042;-75
2023/09/27 06:43:01;;;;;;;15.27;13.52;;;;;;;;;;4968290;28;20130;-75
2023/09/27 06:45:27;;;;;;;15.45;13.43;;;;;;;;;;4962187;28;20042;-75
2023/09/27 06:47:54;;;;;;;15.25;13.85;;;;;;;;;;4964615;28;20035;-75
2023/09/27 06:50:20;;;;;;;16.35;14.80;;;;;;;;;;4966832;28;20483;-74
2023/09/27 06:52:47;;;;;;;18.30;16.42;;;;;;;;;;4961115;28;20049;-74
2023/09/27 06:55:16;;;;;;;16.67;14.98;;;;;;;;;;4971617;28;20034;-74
2023/09/27 06:57:44;;;;;;;15.77;14.38;;;;;;;;;;4970663;28;20751;-75
2023/09/27 07:00:18;;;;;;;15.70;14.10;;;;;;;;;;4972351;28;20052;-75
2023/09/27 07:02:47;;;;;;;15.80;14.20;;;;;;;;;;4966225;28;20034;-75
2023/09/27 07:05:12;;;;;;;16.17;13.98;;;;;;;;;;4981631;28;20096;-75
2023/09/27 07:07:38;;;;;;;15.90;14.23;;;;;;;;;;4968892;28;20030;-76
2023/09/27 07:10:04;;;;;;;14.40;13.00;;;;;;;;;;4969332;28;20042;-76
2023/09/27 07:12:30;;;;;;;13.55;12.35;;;;;;;;;;4971153;28;20144;-75
2023/09/27 07:14:57;;;;;;;14.70;13.35;;;;;;;;;;4961904;28;20133;-75
2023/09/27 07:17:25;;;;;;;14.73;13.40;;;;;;;;;;4968584;28;20038;-75
2023/09/27 07:19:51;;;;;;;12.25;11.30;;;;;;;;;;4966373;28;20119;-75
2023/09/27 07:22:17;;;;;;;14.52;13.32;;;;;;;;;;4970028;28;20030;-76
2023/09/27 07:24:43;;;;;;;14.57;13.25;;;;;;;;;;4965008;28;20038;-76
2023/09/27 07:27:09;;;;;;;13.65;12.55;;;;;;;;;;4976333;28;20042;-75
2023/09/27 07:29:34;;;;;;;13.27;12.00;;;;;;;;;;4971271;28;20505;-75
2023/09/27 07:32:00;;;;;;;12.13;11.02;;;;;;;;;;4967630;28;20027;-74
2023/09/27 07:34:25;;;;;;;11.85;11.05;;;;;;;;;;4971879;28;20034;-76
2023/09/27 07:36:54;;;;;;;12.05;11.05;;;;;;;;;;4969033;28;20039;-76
2023/09/27 07:39:20;;;;;;;12.55;11.48;;;;;;;;;;4965996;28;20701;-76
2023/09/27 07:41:46;;;;;;;11.68;10.68;;;;;;;;;;4961750;28;20043;-76
2023/09/27 07:44:12;;;;;;;11.10;10.07;;;;;;;;;;4971572;28;20038;-77
2023/09/27 07:46:38;;;;;;;11.70;10.80;;;;;;;;;;4974469;28;20038;-76
2023/09/27 07:49:04;;;;;;;11.90;10.80;;;;;;;;;;4974401;28;20031;-75
2023/09/27 07:51:29;;;;;;;11.85;10.65;;;;;;;;;;4966004;28;20169;-76
2023/09/27 07:53:55;;;;;;;11.45;10.52;;;;;;;;;;4971397;28;20070;-76
2023/09/27 07:56:22;;;;;;;11.02;10.23;;;;;;;;;;4969386;28;20038;-76
2023/09/27 07:58:51;;;;;;;11.32;10.43;;;;;;;;;;4969535;28;20038;-76
2023/09/27 08:01:20;;;;;;;12.18;11.07;;;;;;;;;;4968605;28;20039;-76
2023/09/27 08:03:53;;;;;;;11.63;10.43;;;;;;;;;;4965361;28;20070;-76
2023/09/27 08:06:19;;;;;;;11.95;10.95;;;;;;;;;;4958981;28;20035;-76
2023/09/27 08:08:45;;;;;;;11.45;10.55;;;;;;;;;;4965637;28;20138;-76
2023/09/27 08:11:13;;;;;;;12.57;10.88;;;;;;;;;;4962916;28;20134;-77
2023/09/27 08:13:40;;;;;;;11.33;10.23;;;;;;;;;;4965102;28;20339;-75
2023/09/27 08:16:07;;;;;;;11.10;10.00;;;;;;;;;;4965668;28;20321;-77
2023/09/27 08:18:34;;;;;;;11.20;10.30;;;;;;;;;;4964489;28;20030;-76
2023/09/27 08:21:01;;;;;;;10.60;9.60;;;;;;;;;;4964246;28;20054;-76
2023/09/27 08:23:26;;;;;;;9.80;9.07;;;;;;;;;;4972654;28;20380;-76
2023/09/27 08:25:52;;;;;;;10.80;9.90;;;;;;;;;;4965253;28;20045;-75
2023/09/27 08:28:21;;;;;;;10.43;9.43;;;;;;;;;;4964104;28;20030;-75
2023/09/27 08:30:47;;;;;;;10.95;9.93;;;;;;;;;;4967247;28;20532;-75
2023/09/27 08:33:13;;;;;;;10.32;9.43;;;;;;;;;;4973843;28;20486;-75
2023/09/27 08:35:38;;;;;;;11.35;10.27;;;;;;;;;;4965389;28;20061;-75
2023/09/27 08:38:04;;;;;;;11.05;10.13;;;;;;;;;;4966628;28;20111;-75
2023/09/27 08:40:30;;;;;;;10.55;9.75;;;;;;;;;;4968685;28;20112;-75
2023/09/27 08:43:00;;;;;;;10.57;9.63;;;;;;;;;;4968515;28;20076;-75
2023/09/27 08:45:26;;;;;;;9.80;9.00;;;;;;;;;;4963537;28;20126;-75
2023/09/27 08:47:53;;;;;;;9.90;9.10;;;;;;;;;;4958976;28;20053;-75
2023/09/27 08:50:19;;;;;;;10.23;9.43;;;;;;;;;;4972233;28;20092;-75
2023/09/27 08:52:50;;;;;;;10.95;9.93;;;;;;;;;;4959837;28;20362;-75
2023/09/27 08:55:17;;;;;;;10.02;9.10;;;;;;;;;;4974102;28;20121;-75
2023/09/27 08:57:53;;;;;;;9.65;8.85;;;;;;;;;;4962809;28;20066;-75
2023/09/27 09:00:21;;;;;;;10.45;9.48;;;;;;;;;;4971749;28;20062;-75
2023/09/27 09:02:49;;;;;;;10.60;9.60;;;;;;;;;;4964196;28;20042;-75
2023/09/27 09:05:17;;;;;;;9.93;9.10;;;;;;;;;;4965266;28;20155;-76
2023/09/27 09:07:43;;;;;;;10.85;10.05;;;;;;;;;;4967705;28;20137;-75
2023/09/27 09:10:18;;;;;;;10.52;9.57;;;;;;;;;;4970734;28;20118;-74
2023/09/27 09:12:47;;;;;;;11.10;9.95;;;;;;;;;;4967558;28;20027;-74
2023/09/27 09:15:40;;;;;;;10.38;9.43;;;;;;;;;;4972363;28;20038;-74
2023/09/27 09:18:14;;;;;;;10.10;9.13;;;;;;;;;;4964082;28;20082;-74
2023/09/27 09:20:54;;;;;;;10.10;9.23;;;;;;;;;;4962136;28;20585;-74
2023/09/27 09:23:34;;;;;;;11.10;10.00;;;;;;;;;;4969036;28;20046;-74
2023/09/27 09:26:03;;;;;;;10.20;9.40;;;;;;;;;;4969655;28;20043;-74
2023/09/27 09:28:29;;;;;;;10.85;9.30;;;;;;;;;;4974275;28;20039;-74
2023/09/27 09:30:55;;;;;;;10.13;9.02;;;;;;;;;;4962838;28;20065;-74
2023/09/27 09:33:22;;;;;;;9.98;9.00;;;;;;;;;;4969391;28;20042;-74
2023/09/27 09:35:48;;;;;;;9.55;8.73;;;;;;;;;;4969032;28;20102;-74
2023/09/27 09:38:26;;;;;;;9.73;8.82;;;;;;;;;;4968874;28;20034;-75
2023/09/27 09:40:53;;;;;;;9.77;8.97;;;;;;;;;;4957540;28;20026;-73
2023/09/27 09:43:48;;;;;;;10.15;9.13;;;;;;;;;;4972783;28;20081;-75
2023/09/27 09:46:23;;;;;;;12.32;9.73;;;;;;;;;;4960025;28;20090;-73
2023/09/27 09:48:49;;;;;;;9.70;8.80;;;;;;;;;;4960104;28;20392;-73
2023/09/27 09:51:16;;;;;;;9.55;8.65;;;;;;;;;;4955594;28;20122;-75
2023/09/27 09:53:42;;;;;;;8.93;8.23;;;;;;;;;;4951603;28;20087;-75
2023/09/27 09:56:10;;;;;;;9.80;7.85;;;;;;;;;;4951529;28;20114;-75
2023/09/27 09:59:03;;;;;;;8.55;7.75;;;;;;;;;;4949025;28;20109;-76
2023/09/27 10:01:37;;;;;;;9.30;8.48;;;;;;;;;;4948701;28;20035;-75
2023/09/27 10:04:05;;;;;;;8.50;7.70;;;;;;;;;;4949473;28;20209;-75
2023/09/27 10:06:32;;;;;;;9.23;8.32;;;;;;;;;;4949532;28;20043;-76
2023/09/27 10:09:01;;;;;;;8.45;7.75;;;;;;;;;;4947927;28;20113;-76
2023/09/27 10:11:27;;;;;;;8.27;7.65;;;;;;;;;;4948741;28;20077;-76
2023/09/27 10:13:54;;;;;;;7.80;7.10;;;;;;;;;;4951246;28;20039;-76
2023/09/27 10:16:23;;;;;;;8.00;7.30;;;;;;;;;;4945909;28;20049;-77
2023/09/27 10:18:48;;;;;;;7.88;7.10;;;;;;;;;;4940090;28;20040;-77
2023/09/27 10:21:15;;;;;;;7.88;7.15;;;;;;;;;;4946911;28;20038;-77
2023/09/27 10:23:43;;;;;;;7.60;6.90;;;;;;;;;;4960764;28;20066;-77
2023/09/27 10:26:28;;;;;;;7.82;7.20;;;;;;;;;;4967689;28;20069;-76
2023/09/27 10:29:06;;;;;;;9.50;7.03;;;;;;;;;;4963557;28;20082;-77
2023/09/27 10:31:37;;;;;;;8.07;7.47;;;;;;;;;;4964690;28;20039;-76
2023/09/27 10:34:22;;;;;;;8.07;7.40;;;;;;;;;;4963187;28;20043;-74
2023/09/27 10:36:48;;;;;;;7.88;7.28;;;;;;;;;;4971232;28;20041;-74
2023/09/27 10:39:13;;;;;;;7.30;6.80;;;;;;;;;;4968395;28;20031;-74
2023/09/27 10:41:43;;;;;;;7.82;7.13;;;;;;;;;;4971652;28;20034;-77
2023/09/27 10:44:09;;;;;;;7.40;6.80;;;;;;;;;;4972916;28;20035;-76
2023/09/27 10:46:41;;;;;;;7.97;7.28;;;;;;;;;;4935666;28;20137;-75
2023/09/27 10:49:07;;;;;;;9.00;7.00;;;;;;;;;;4969025;28;20406;-75
2023/09/27 10:51:33;;;;;;;7.80;7.18;;;;;;;;;;4966734;28;20034;-74
2023/09/27 10:53:59;;;;;;;8.00;7.30;;;;;;;;;;4976588;28;20129;-74
2023/09/27 10:56:25;;;;;;;8.43;7.57;;;;;;;;;;4971527;28;20044;-74
2023/09/27 10:58:51;;;;;;;8.30;7.50;;;;;;;;;;4973710;28;20043;-75
2023/09/27 11:01:22;;;;;;;8.07;7.32;;;;;;;;;;4963850;28;20510;-75
2023/09/27 11:03:59;;;;;;;7.63;7.03;;;;;;;;;;4968546;28;20503;-73
2023/09/27 11:06:25;;;;;;;8.32;7.53;;;;;;;;;;4967482;28;20083;-75
2023/09/27 11:08:51;;;;;;;9.30;7.55;;;;;;;;;;4970486;28;20030;-74
2023/09/27 11:11:16;;;;;;;7.97;7.18;;;;;;;;;;4972217;28;20172;-75
2023/09/27 11:13:43;;;;;;;7.53;7.03;;;;;;;;;;4967977;28;20876;-75
2023/09/27 11:16:18;;;;;;;7.75;7.15;;;;;;;;;;4965081;28;20063;-74
2023/09/27 11:18:56;;;;;;;7.72;7.13;;;;;;;;;;4966815;28;20460;-75
2023/09/27 11:21:31;;;;;;;7.63;6.75;;;;;;;;;;4971953;28;20030;-74
2023/09/27 11:24:04;;;;;;;6.72;6.25;;;;;;;;;;4967299;28;20061;-77
2023/09/27 11:26:33;;;;;;;6.88;6.40;;;;;;;;;;4946496;28;20514;-76
2023/09/27 11:29:03;;;;;;;7.20;6.50;;;;;;;;;;4969578;28;20061;-76
2023/09/27 11:31:33;;;;;;;7.13;6.47;;;;;;;;;;4972371;28;20034;-76
2023/09/27 11:34:19;;;;;;;7.38;6.70;;;;;;;;;;4964867;28;20042;-74
2023/09/27 11:36:57;;;;;;;7.53;6.82;;;;;;;;;;4970003;28;20406;-75
2023/09/27 11:39:28;;;;;;;7.30;6.60;;;;;;;;;;4963298;28;20042;-75
2023/09/27 11:41:58;;;;;;;7.45;6.75;;;;;;;;;;4965529;28;20567;-75
2023/09/27 11:44:26;;;;;;;7.22;6.70;;;;;;;;;;4966430;28;20065;-75
2023/09/27 11:47:04;;;;;;;7.47;6.13;;;;;;;;;;4961468;28;20070;-75
2023/09/27 11:49:30;;;;;;;7.78;7.00;;;;;;;;;;4975131;28;20122;-75
2023/09/27 11:51:56;;;;;;;7.82;7.15;;;;;;;;;;4970145;28;20466;-76
2023/09/27 11:54:22;;;;;;;8.18;7.45;;;;;;;;;;4945390;28;20487;-75
2023/09/27 11:56:48;;;;;;;8.05;7.25;;;;;;;;;;4970673;28;20069;-77
2023/09/27 11:59:13;;;;;;;8.30;7.43;;;;;;;;;;4968674;28;20082;-76
2023/09/27 12:01:39;;;;;;;8.38;7.68;;;;;;;;;;4965073;28;20053;-74
2023/09/27 12:04:05;;;;;;;9.18;8.38;;;;;;;;;;4968638;28;20118;-75
2023/09/27 12:06:31;;;;;;;8.50;8.00;;;;;;;;;;4973468;28;20549;-76
2023/09/27 12:08:59;;;;;;;8.40;7.70;;;;;;;;;;4965260;28;20034;-76
2023/09/27 12:11:24;;;;;;;8.30;7.70;;;;;;;;;;4966139;28;20058;-76
2023/09/27 12:13:53;;;;;;;8.75;7.95;;;;;;;;;;4970944;28;20038;-74
2023/09/27 12:16:20;;;;;;;8.57;7.97;;;;;;;;;;4971131;28;20057;-76
2023/09/27 12:18:46;;;;;;;8.30;7.80;;;;;;;;;;4969279;28;20778;-75
2023/09/27 12:21:13;;;;;;;8.90;8.10;;;;;;;;;;4968748;28;20044;-75
2023/09/27 12:23:39;;;;;;;8.80;8.20;;;;;;;;;;4971311;28;20035;-75
2023/09/27 12:26:05;;;;;;;8.60;8.10;;;;;;;;;;4972552;28;20038;-75
2023/09/27 12:28:30;;;;;;;9.20;8.60;;;;;;;;;;4969313;28;20070;-75
2023/09/27 12:30:56;;;;;;;8.70;8.10;;;;;;;;;;4961715;28;20058;-73
2023/09/27 12:33:21;;;;;;;8.80;8.00;;;;;;;;;;4968594;28;20622;-75
2023/09/27 12:35:47;;;;;;;10.82;8.55;;;;;;;;;;4970480;28;20042;-75
2023/09/27 12:38:12;;;;;;;8.75;8.15;;;;;;;;;;4963044;28;20518;-74
2023/09/27 12:40:38;;;;;;;10.07;8.38;;;;;;;;;;4968412;28;20038;-74
2023/09/27 12:43:04;;;;;;;8.93;8.35;;;;;;;;;;4962463;28;20558;-75
2023/09/27 12:45:33;;;;;;;9.27;8.48;;;;;;;;;;4960232;28;20143;-75
2023/09/27 12:47:58;;;;;;;12.45;8.50;;;;;;;;;;4963632;28;20610;-75
2023/09/27 12:50:26;;;;;;;9.23;8.43;;;;;;;;;;4962740;28;20121;-75
2023/09/27 12:52:56;;;;;;;8.45;7.95;;;;;;;;;;4964577;28;20061;-76
2023/09/27 12:55:23;;;;;;;8.93;8.30;;;;;;;;;;4965589;28;20039;-74
2023/09/27 12:57:51;;;;;;;8.70;8.10;;;;;;;;;;4969495;28;20038;-74
2023/09/27 13:00:17;;;;;;;8.63;7.97;;;;;;;;;;4963695;28;20521;-73
2023/09/27 13:02:43;;;;;;;8.90;8.18;;;;;;;;;;4967597;28;20034;-74
2023/09/27 13:05:09;;;;;;;9.15;8.20;;;;;;;;;;4969236;28;20049;-73
2023/09/27 13:07:34;;;;;;;8.90;8.10;;;;;;;;;;4965704;28;20485;-73
2023/09/27 13:10:03;;;;;;;9.07;8.38;;;;;;;;;;4960943;28;20043;-73
2023/09/27 13:12:29;;;;;;;;;;;;;;;;;;4962896;28;20043;-74
2023/09/27 13:14:56;;;;;;;9.13;8.52;;;;;;;;;;4967014;28;19917;-73
2023/09/27 13:17:23;;;;;;;9.07;8.48;;;;;;;;;;4970147;28;20450;-73
2023/09/27 13:19:50;;;;;;;8.90;8.20;;;;;;;;;;4964081;28;20671;-73
2023/09/27 13:22:16;;;;;;;9.30;8.50;;;;;;;;;;4972108;28;20419;-73
2023/09/27 13:24:42;;;;;;;8.57;7.95;;;;;;;;;;4969010;28;20047;-73
2023/09/27 13:27:08;;;;;;;8.63;8.13;;;;;;;;;;4963469;28;20047;-73
2023/09/27 13:29:33;;;;;;;9.32;8.52;;;;;;;;;;4966628;28;20838;-72
2023/09/27 13:31:59;;;;;;;8.80;8.20;;;;;;;;;;4975325;28;20125;-73
2023/09/27 13:34:24;;;;;;;8.77;8.18;;;;;;;;;;4968912;28;20041;-73
2023/09/27 13:36:50;;;;;;;8.70;8.10;;;;;;;;;;4968385;28;20041;-73
2023/09/27 13:39:16;;;;;;;9.27;8.32;;;;;;;;;;4962096;28;20034;-73
2023/09/27 13:41:43;;;;;;;9.25;8.55;;;;;;;;;;4969257;28;20043;-73
2023/09/27 13:44:10;;;;;;;8.63;8.02;;;;;;;;;;4973848;28;20510;-72
2023/09/27 13:46:37;;;;;;;9.07;8.48;;;;;;;;;;4960564;28;20046;-76
2023/09/27 13:49:03;;;;;;;9.00;8.30;;;;;;;;;;4961900;28;20038;-72
2023/09/27 13:51:32;;;;;;;9.30;8.50;;;;;;;;;;4963686;28;20051;-73
2023/09/27 13:53:58;;;;;;;8.80;8.20;;;;;;;;;;4960632;28;20046;-73
2023/09/27 13:56:23;;;;;;;8.80;8.20;;;;;;;;;;4967768;28;20042;-73
2023/09/27 13:58:49;;;;;;;8.80;8.13;;;;;;;;;;4963939;28;20054;-73
2023/09/27 14:01:14;;;;;;;8.52;7.93;;;;;;;;;;4961006;28;20044;-73
2023/09/27 14:03:40;;;;;;;8.93;8.05;;;;;;;;;;4967002;28;20030;-72
2023/09/27 14:06:06;;;;;;;8.50;7.95;;;;;;;;;;4969108;28;20042;-72
2023/09/27 14:08:31;;;;;;;9.00;8.10;;;;;;;;;;4963269;28;20479;-73
2023/09/27 14:10:57;;;;;;;8.75;8.10;;;;;;;;;;4966967;28;20117;-73
2023/09/27 14:13:22;;;;;;;10.15;8.85;;;;;;;;;;4965533;28;20050;-73
2023/09/27 14:15:48;;;;;;;8.20;7.70;;;;;;;;;;4965889;28;20081;-72
2023/09/27 14:18:13;;;;;;;8.82;8.00;;;;;;;;;;4961050;28;20039;-73
2023/09/27 14:20:39;;;;;;;8.52;7.93;;;;;;;;;;4969696;28;20034;-76
2023/09/27 14:23:05;;;;;;;8.75;8.00;;;;;;;;;;4968227;28;20474;-73
2023/09/27 14:25:32;;;;;;;8.95;8.25;;;;;;;;;;4973698;28;20034;-76
2023/09/27 14:27:57;;;;;;;8.57;8.07;;;;;;;;;;4970352;28;20062;-75
2023/09/27 14:30:24;;;;;;;9.32;8.70;;;;;;;;;;4962799;28;20113;-75